Time;durP1;ratioP1;P1;durP2;ratioP2;P2;SDS_P1;SDS_P2;PMS_P1;PMS_P2;Temp;Humidity;BMP_temperature;BMP_pressure;BME280_temperature;BME280_humidity;BME280_pressure;Samples;Min_cycle;Max_cycle;Signal;HPM_P1;HPM_P2
2022/05/01 00:00:26;;;;;;;11.80;11.40;;;18.80;51.10;;;;;;5073514;28;20874;-46
2022/05/01 00:02:53;;;;;;;10.97;10.57;;;18.80;51.40;;;;;;5073526;28;20455;-47
2022/05/01 00:05:20;;;;;;;12.40;11.90;;;18.90;51.70;;;;;;5071705;28;20447;-47
2022/05/01 00:07:47;;;;;;;11.77;11.37;;;18.80;51.30;;;;;;5056283;28;20464;-47
2022/05/01 00:10:14;;;;;;;12.77;12.17;;;18.80;51.30;;;;;;5053251;28;20495;-48
2022/05/01 00:12:42;;;;;;;12.37;11.87;;;18.70;51.30;;;;;;5053399;28;20444;-47
2022/05/01 00:15:09;;;;;;;12.77;12.17;;;18.70;51.50;;;;;;5063991;28;20448;-47
2022/05/01 00:17:36;;;;;;;11.80;11.37;;;18.70;51.60;;;;;;5072869;28;20502;-48
2022/05/01 00:20:04;;;;;;;13.70;13.00;;;18.70;51.80;;;;;;5073229;28;20804;-47
2022/05/01 00:22:30;;;;;;;13.60;13.10;;;18.70;51.50;;;;;;5073144;28;20451;-50
2022/05/01 00:24:57;;;;;;;12.60;12.10;;;18.70;51.80;;;;;;5071506;28;20953;-50
2022/05/01 00:27:24;;;;;;;12.60;12.10;;;18.70;52.00;;;;;;5062726;28;20472;-50
2022/05/01 00:29:52;;;;;;;14.37;13.67;;;18.70;51.90;;;;;;5072447;28;20491;-50
2022/05/01 00:32:19;;;;;;;13.37;12.83;;;18.70;51.90;;;;;;5072797;28;20450;-48
2022/05/01 00:37:29;;;;;;;14.77;14.07;;;18.40;52.00;;;;;;5052876;28;20459;-50
2022/05/01 00:39:56;;;;;;;14.00;13.40;;;18.30;52.40;;;;;;5053017;28;20447;-47
2022/05/01 00:42:23;;;;;;;13.23;12.73;;;18.30;52.50;;;;;;5052836;28;20534;-46
2022/05/01 00:44:49;;;;;;;12.93;12.40;;;18.20;52.90;;;;;;5053736;28;20440;-48
2022/05/01 00:47:18;;;;;;;13.83;12.90;;;18.20;53.00;;;;;;5083323;22;20864;-46
2022/05/01 00:49:44;;;;;;;14.40;13.47;;;18.20;53.10;;;;;;5058793;28;20474;-45
2022/05/01 00:52:12;;;;;;;13.07;12.57;;;18.30;53.20;;;;;;5072576;28;20448;-46
2022/05/01 00:54:40;;;;;;;13.20;12.50;;;18.30;53.10;;;;;;5072156;28;20941;-45
2022/05/01 00:57:08;;;;;;;12.13;11.73;;;18.40;52.80;;;;;;5071565;28;20878;-46
2022/05/01 00:59:36;;;;;;;12.50;12.00;;;18.50;52.90;;;;;;5072326;28;20448;-46
2022/05/01 01:02:04;;;;;;;11.97;11.57;;;18.50;52.40;;;;;;5072555;28;20459;-46
2022/05/01 01:04:33;;;;;;;11.80;11.10;;;18.50;52.70;;;;;;5070711;28;20450;-47
2022/05/01 01:06:59;;;;;;;11.67;11.20;;;18.60;52.90;;;;;;5071910;28;20459;-46
2022/05/01 01:09:26;;;;;;;12.07;11.57;;;18.60;52.50;;;;;;5072211;28;20479;-45
2022/05/01 01:14:34;;;;;;;11.00;10.60;;;18.40;52.70;;;;;;5066488;28;20937;-45
2022/05/01 01:17:00;;;;;;;11.00;10.50;;;18.40;52.80;;;;;;5051921;28;20468;-46
2022/05/01 01:19:27;;;;;;;12.37;11.97;;;18.40;52.90;;;;;;5052069;28;20979;-46
2022/05/01 01:21:55;;;;;;;11.33;10.93;;;18.50;53.40;;;;;;5053105;28;20447;-46
2022/05/01 01:24:22;;;;;;;11.77;11.27;;;18.50;53.40;;;;;;5052881;28;20449;-46
2022/05/01 01:26:49;;;;;;;11.70;11.20;;;18.60;53.50;;;;;;5052025;28;20463;-46
2022/05/01 01:32:01;;;;;;;12.40;11.90;;;18.40;53.00;;;;;;5063571;28;20797;-46
2022/05/01 01:34:36;;;;;;;12.10;11.60;;;18.40;53.10;;;;;;5071814;28;20451;-46
2022/05/01 01:37:07;;;;;;;13.10;12.50;;;18.30;53.00;;;;;;5071848;28;20485;-46
2022/05/01 01:39:34;;;;;;;12.10;11.60;;;18.40;53.10;;;;;;5066396;28;20495;-46
2022/05/01 01:42:05;;;;;;;11.60;11.10;;;18.30;53.30;;;;;;5050966;28;20878;-46
2022/05/01 01:44:34;;;;;;;12.17;11.67;;;18.20;53.70;;;;;;5052757;28;20824;-48
2022/05/01 01:47:01;;;;;;;12.43;11.90;;;18.20;53.90;;;;;;5051303;28;20476;-46
2022/05/01 01:49:28;;;;;;;12.70;12.10;;;18.10;53.90;;;;;;5055387;28;20844;-46
2022/05/01 01:51:54;;;;;;;11.50;11.10;;;18.00;54.20;;;;;;5071636;28;20447;-46
2022/05/01 01:54:24;;;;;;;12.70;12.10;;;18.20;54.30;;;;;;5051763;28;20810;-46
2022/05/01 01:56:51;;;;;;;12.77;12.20;;;18.10;54.30;;;;;;5051388;28;20905;-46
2022/05/01 01:59:18;;;;;;;13.33;12.73;;;18.00;54.20;;;;;;5053643;28;20980;-46
2022/05/01 02:01:45;;;;;;;11.80;11.30;;;18.00;54.50;;;;;;5071665;28;20498;-46
2022/05/01 02:04:12;;;;;;;12.70;12.20;;;18.10;54.40;;;;;;5071520;28;20501;-46
2022/05/01 02:06:38;;;;;;;12.87;12.37;;;18.20;54.40;;;;;;5071300;28;20646;-46
2022/05/01 02:09:07;;;;;;;12.80;12.30;;;18.20;54.20;;;;;;5070462;28;20483;-46
2022/05/01 02:11:36;;;;;;;12.70;12.20;;;18.20;54.00;;;;;;5070986;28;20487;-45
2022/05/01 02:14:03;;;;;;;13.37;12.67;;;18.20;54.10;;;;;;5071416;28;20439;-46
2022/05/01 02:16:30;;;;;;;12.73;12.23;;;18.10;53.90;;;;;;5071311;28;20471;-45
2022/05/01 02:18:57;;;;;;;13.03;12.53;;;18.00;54.50;;;;;;5071172;28;20444;-45
2022/05/01 02:21:36;;;;;;;12.37;11.87;;;18.00;54.60;;;;;;5051713;28;20443;-45
2022/05/01 02:24:08;;;;;;;12.50;11.90;;;17.90;54.90;;;;;;5067509;28;20451;-45
2022/05/01 02:26:36;;;;;;;13.33;12.63;;;17.90;54.80;;;;;;5071043;28;20472;-46
2022/05/01 02:29:04;;;;;;;13.03;12.43;;;17.80;55.00;;;;;;5070900;28;21068;-46
2022/05/01 02:31:31;;;;;;;13.30;12.80;;;17.80;55.20;;;;;;5052439;28;20455;-45
2022/05/01 02:33:57;;;;;;;12.97;12.33;;;17.80;55.60;;;;;;5051150;28;20946;-45
2022/05/01 02:36:24;;;;;;;13.80;12.90;;;17.80;55.60;;;;;;5051276;28;20447;-46
2022/05/01 02:38:51;;;;;;;13.10;12.43;;;17.70;56.10;;;;;;5058786;28;20823;-45
2022/05/01 02:41:18;;;;;;;13.70;13.07;;;17.70;56.00;;;;;;5069132;28;20447;-46
2022/05/01 02:43:47;;;;;;;14.80;14.10;;;17.70;56.30;;;;;;5051003;28;20452;-45
2022/05/01 02:46:14;;;;;;;14.70;14.00;;;17.70;56.40;;;;;;5051001;28;20448;-45
2022/05/01 02:48:40;;;;;;;13.87;13.27;;;17.70;56.50;;;;;;5060801;28;20456;-45
2022/05/01 02:51:07;;;;;;;13.13;12.63;;;17.70;56.40;;;;;;5069351;28;20506;-45
2022/05/01 02:53:34;;;;;;;13.60;12.90;;;17.70;56.50;;;;;;5074117;28;20454;-46
2022/05/01 02:56:01;;;;;;;13.33;12.77;;;17.70;56.60;;;;;;5074708;28;20451;-45
2022/05/01 02:58:28;;;;;;;13.73;13.20;;;17.60;56.60;;;;;;5066415;28;20464;-45
2022/05/01 03:00:57;;;;;;;12.97;12.47;;;17.60;56.70;;;;;;5054629;28;20453;-45
2022/05/01 03:03:24;;;;;;;13.90;13.10;;;17.60;57.00;;;;;;5054950;28;20448;-46
2022/05/01 03:05:52;;;;;;;12.67;12.07;;;17.70;57.00;;;;;;5054655;28;20444;-45
2022/05/01 03:08:19;;;;;;;13.67;13.00;;;17.60;57.10;;;;;;5060940;28;20532;-45
2022/05/01 03:10:47;;;;;;;14.93;14.07;;;17.60;57.10;;;;;;5074400;28;20505;-47
2022/05/01 03:13:13;;;;;;;13.80;13.20;;;17.50;57.20;;;;;;5074462;28;20455;-45
2022/05/01 03:15:40;;;;;;;13.60;12.80;;;17.50;57.30;;;;;;5074386;28;20443;-46
2022/05/01 03:23:37;;;;;;;14.00;13.30;;;17.50;57.80;;;;;;5054315;28;20466;-45
2022/05/01 03:26:04;;;;;;;13.53;12.90;;;17.40;58.10;;;;;;5054266;28;20444;-45
2022/05/01 03:28:31;;;;;;;14.70;13.90;;;17.40;58.20;;;;;;5055332;28;20479;-46
2022/05/01 03:30:58;;;;;;;14.00;13.30;;;17.40;58.40;;;;;;5054005;28;20480;-45
2022/05/01 03:33:26;;;;;;;14.00;13.20;;;17.50;58.50;;;;;;5054138;28;20945;-46
2022/05/01 03:35:55;;;;;;;13.30;12.70;;;17.40;58.40;;;;;;5054038;28;20938;-46
2022/05/01 03:38:22;;;;;;;13.50;12.90;;;17.40;58.60;;;;;;5054773;28;20484;-45
2022/05/01 03:40:49;;;;;;;13.80;13.20;;;17.40;58.80;;;;;;5053945;28;20501;-47
2022/05/01 03:43:17;;;;;;;13.40;12.77;;;17.40;58.80;;;;;;5053913;28;20444;-45
2022/05/01 03:45:44;;;;;;;14.30;13.60;;;17.40;58.70;;;;;;5053845;28;20452;-45
2022/05/01 03:48:12;;;;;;;14.07;13.37;;;17.40;58.80;;;;;;5071914;28;20829;-45
2022/05/01 03:50:40;;;;;;;15.00;14.10;;;17.40;58.90;;;;;;5059600;28;21061;-45
2022/05/01 03:53:07;;;;;;;15.77;14.83;;;17.40;58.90;;;;;;5053698;28;20444;-45
2022/05/01 03:55:36;;;;;;;14.37;13.67;;;17.50;58.90;;;;;;5053638;28;20455;-45
2022/05/01 03:58:03;;;;;;;14.00;13.30;;;17.50;58.80;;;;;;5070032;28;20493;-45
2022/05/01 04:00:30;;;;;;;14.40;13.80;;;17.40;58.80;;;;;;5073928;28;20447;-45
2022/05/01 04:02:56;;;;;;;14.63;13.93;;;17.40;59.70;;;;;;5073517;28;20440;-45
2022/05/01 04:05:23;;;;;;;13.70;13.10;;;17.40;59.20;;;;;;5072685;28;20947;-45
2022/05/01 04:07:51;;;;;;;13.97;13.37;;;17.50;59.20;;;;;;5071385;28;20472;-46
2022/05/01 04:10:18;;;;;;;14.27;13.57;;;17.40;59.10;;;;;;5073329;28;20483;-45
2022/05/01 04:12:45;;;;;;;13.90;13.30;;;17.60;59.00;;;;;;5073316;28;20811;-45
2022/05/01 04:15:14;;;;;;;13.70;13.10;;;17.60;58.80;;;;;;5073341;28;20462;-47
2022/05/01 04:17:42;;;;;;;13.90;13.20;;;17.50;59.30;;;;;;5059050;28;20523;-45
2022/05/01 04:20:12;;;;;;;13.93;13.30;;;17.50;59.60;;;;;;5061915;28;20530;-45
2022/05/01 04:22:40;;;;;;;16.03;15.23;;;17.50;59.50;;;;;;5073329;28;20451;-45
2022/05/01 04:25:16;;;;;;;15.90;15.00;;;17.40;59.30;;;;;;5073152;28;20451;-46
2022/05/01 04:27:43;;;;;;;14.20;13.50;;;17.50;59.50;;;;;;5071053;28;20475;-45
2022/05/01 04:30:13;;;;;;;14.03;13.33;;;17.50;59.30;;;;;;5072947;28;20843;-47
2022/05/01 04:32:59;;;;;;;14.30;13.50;;;17.40;59.40;;;;;;5073003;28;20507;-45
2022/05/01 04:35:28;;;;;;;14.67;13.97;;;17.40;59.80;;;;;;5072918;28;20458;-45
2022/05/01 04:37:59;;;;;;;14.70;13.90;;;17.40;59.70;;;;;;5057324;28;20989;-46
2022/05/01 04:40:28;;;;;;;15.40;14.67;;;17.40;59.90;;;;;;5052841;28;20437;-45
2022/05/01 04:43:01;;;;;;;15.40;14.70;;;17.40;59.90;;;;;;5052710;28;20811;-46
2022/05/01 04:45:28;;;;;;;13.47;12.90;;;17.30;59.90;;;;;;5060825;28;20450;-46
2022/05/01 04:47:55;;;;;;;13.80;13.20;;;17.60;59.40;;;;;;5070467;28;20478;-45
2022/05/01 04:50:21;;;;;;;14.70;14.10;;;17.60;58.90;;;;;;5072391;28;20478;-45
2022/05/01 04:52:48;;;;;;;13.47;12.87;;;17.70;58.40;;;;;;5072580;28;20821;-46
2022/05/01 04:55:15;;;;;;;13.70;13.03;;;17.70;57.80;;;;;;5065932;28;20452;-48
2022/05/01 04:57:43;;;;;;;13.57;12.97;;;17.80;57.90;;;;;;5052089;28;20989;-47
2022/05/01 05:00:13;;;;;;;13.80;13.10;;;17.90;58.10;;;;;;5052482;28;20440;-48
2022/05/01 05:02:42;;;;;;;13.43;12.83;;;17.90;58.70;;;;;;5052422;28;20459;-48
2022/05/01 05:05:11;;;;;;;14.50;13.90;;;17.90;58.70;;;;;;5053721;28;20636;-49
2022/05/01 05:07:38;;;;;;;14.17;13.57;;;17.90;58.20;;;;;;5072012;28;20471;-49
2022/05/01 05:10:05;;;;;;;13.50;12.90;;;18.00;58.30;;;;;;5072155;28;20483;-48
2022/05/01 05:12:33;;;;;;;14.00;13.20;;;18.00;58.00;;;;;;5072278;28;20509;-48
2022/05/01 05:15:02;;;;;;;14.40;13.50;;;18.00;57.90;;;;;;5070279;28;20565;-48
2022/05/01 05:17:31;;;;;;;13.53;12.83;;;18.00;57.70;;;;;;5064545;28;20465;-50
2022/05/01 05:19:58;;;;;;;13.97;13.30;;;18.20;58.10;;;;;;5051978;28;20930;-49
2022/05/01 05:22:25;;;;;;;15.00;14.00;;;18.30;57.50;;;;;;5052056;28;20444;-50
2022/05/01 05:24:52;;;;;;;13.40;12.70;;;18.30;57.50;;;;;;5052839;28;20452;-49
2022/05/01 05:27:21;;;;;;;13.67;13.10;;;18.30;57.50;;;;;;5071615;28;20956;-50
2022/05/01 05:29:48;;;;;;;13.60;13.00;;;18.50;57.30;;;;;;5071886;28;20495;-50
2022/05/01 05:32:16;;;;;;;14.20;13.50;;;18.60;57.30;;;;;;5071922;28;20438;-49
2022/05/01 05:34:43;;;;;;;14.50;13.80;;;18.60;56.60;;;;;;5071754;28;20800;-48
2022/05/01 05:37:09;;;;;;;14.37;13.67;;;18.40;56.30;;;;;;5064400;28;20483;-50
2022/05/01 05:39:36;;;;;;;13.43;12.93;;;18.30;56.50;;;;;;5071724;28;20443;-49
2022/05/01 05:42:03;;;;;;;14.27;13.67;;;18.60;57.60;;;;;;5071738;28;20455;-49
2022/05/01 05:44:30;;;;;;;14.13;13.53;;;18.60;56.70;;;;;;5071834;28;20447;-51
2022/05/01 05:46:57;;;;;;;14.07;13.47;;;18.60;56.70;;;;;;5054332;28;20563;-50
2022/05/01 05:49:25;;;;;;;12.93;12.33;;;18.60;57.30;;;;;;5051636;28;20441;-49
2022/05/01 05:51:52;;;;;;;13.83;13.23;;;18.70;57.10;;;;;;5051703;28;20484;-50
2022/05/01 05:54:19;;;;;;;14.17;13.57;;;18.70;56.70;;;;;;5069580;28;20941;-51
2022/05/01 05:56:46;;;;;;;12.87;12.30;;;18.70;56.70;;;;;;5069725;28;20478;-49
2022/05/01 05:59:12;;;;;;;13.00;12.47;;;18.80;56.80;;;;;;5071473;28;20805;-55
2022/05/01 06:01:39;;;;;;;14.50;13.70;;;18.90;56.20;;;;;;5071523;28;20433;-50
2022/05/01 06:04:06;;;;;;;13.67;13.17;;;18.80;55.90;;;;;;5066500;28;20796;-48
2022/05/01 06:06:34;;;;;;;13.90;13.33;;;18.80;55.90;;;;;;5071277;28;20459;-50
2022/05/01 06:09:01;;;;;;;15.13;14.43;;;18.90;55.90;;;;;;5071260;28;20483;-46
2022/05/01 06:11:28;;;;;;;13.13;12.60;;;18.80;55.40;;;;;;5071454;28;20522;-45
2022/05/01 06:13:56;;;;;;;12.30;11.80;;;18.80;55.10;;;;;;5056741;28;20445;-46
2022/05/01 06:16:22;;;;;;;12.03;11.63;;;19.00;55.80;;;;;;5051165;28;20539;-46
2022/05/01 06:18:49;;;;;;;11.80;11.40;;;19.20;56.20;;;;;;5051327;28;20448;-48
2022/05/01 06:21:17;;;;;;;12.80;12.13;;;19.30;55.60;;;;;;5051306;28;20454;-46
2022/05/01 06:23:48;;;;;;;12.53;12.03;;;19.40;55.40;;;;;;5052362;28;20810;-45
2022/05/01 06:26:15;;;;;;;11.50;10.90;;;19.50;55.40;;;;;;5059762;28;20506;-43
2022/05/01 06:28:42;;;;;;;12.70;12.30;;;19.50;55.30;;;;;;5054345;28;20452;-55
2022/05/01 06:31:09;;;;;;;12.10;11.70;;;19.60;55.30;;;;;;5055210;28;20491;-44
2022/05/01 06:33:36;;;;;;;14.27;13.23;;;19.70;55.60;;;;;;5065951;28;20452;-45
2022/05/01 06:36:04;;;;;;;12.13;11.60;;;20.20;54.90;;;;;;5075554;28;20448;-44
2022/05/01 06:38:31;;;;;;;11.87;11.40;;;20.70;54.00;;;;;;5075116;28;20467;-43
2022/05/01 06:40:59;;;;;;;12.13;11.63;;;20.90;53.20;;;;;;5075033;28;20440;-47
2022/05/01 06:43:27;;;;;;;12.90;12.37;;;21.20;52.60;;;;;;5073188;28;20944;-45
2022/05/01 06:45:54;;;;;;;12.00;11.50;;;21.60;52.10;;;;;;5075018;28;20984;-44
2022/05/01 06:48:21;;;;;;;12.53;11.63;;;21.90;51.50;;;;;;5095507;22;20943;-45
2022/05/01 06:50:48;;;;;;;13.43;12.73;;;22.00;50.80;;;;;;5069864;28;20479;-45
2022/05/01 06:53:15;;;;;;;12.17;11.70;;;22.20;50.50;;;;;;5075206;28;20497;-45
2022/05/01 06:55:42;;;;;;;12.13;11.63;;;22.30;50.20;;;;;;5074517;28;20447;-46
2022/05/01 06:58:10;;;;;;;12.03;11.40;;;22.40;49.90;;;;;;5074414;28;20491;-44
2022/05/01 07:00:37;;;;;;;12.10;11.60;;;22.60;49.70;;;;;;5074807;28;20439;-45
2022/05/01 07:03:04;;;;;;;12.50;11.90;;;22.60;49.50;;;;;;5074209;28;20486;-44
2022/05/01 07:05:31;;;;;;;13.43;12.80;;;22.70;49.50;;;;;;5074781;28;20495;-44
2022/05/01 07:07:58;;;;;;;12.90;12.30;;;22.80;49.90;;;;;;5074260;28;20464;-44
2022/05/01 07:10:25;;;;;;;13.10;12.23;;;22.80;51.50;;;;;;5074432;28;20495;-45
2022/05/01 07:12:52;;;;;;;13.20;12.63;;;22.90;51.20;;;;;;5073838;28;20448;-46
2022/05/01 07:15:20;;;;;;;13.40;12.80;;;22.90;51.10;;;;;;5074537;28;20447;-44
2022/05/01 07:17:47;;;;;;;12.00;11.50;;;23.00;50.30;;;;;;5074673;28;20471;-45
2022/05/01 07:20:14;;;;;;;13.20;12.60;;;23.10;49.80;;;;;;5074407;28;20446;-47
2022/05/01 07:22:40;;;;;;;12.30;11.70;;;23.10;49.70;;;;;;5073883;28;20447;-51
2022/05/01 07:25:08;;;;;;;12.40;12.00;;;23.20;50.00;;;;;;5074205;28;20516;-47
2022/05/01 07:27:34;;;;;;;13.50;12.60;;;23.30;50.00;;;;;;5073906;28;20463;-46
2022/05/01 07:30:01;;;;;;;11.70;11.20;;;23.40;49.90;;;;;;5074146;28;20447;-47
2022/05/01 07:32:30;;;;;;;12.30;11.50;;;23.40;49.90;;;;;;5073741;28;21000;-48
2022/05/01 07:34:57;;;;;;;12.63;12.13;;;23.70;49.90;;;;;;5074034;28;20937;-45
2022/05/01 07:37:26;;;;;;;12.70;12.30;;;23.80;49.60;;;;;;5073652;28;20470;-45
2022/05/01 07:39:54;;;;;;;12.33;11.93;;;23.80;49.30;;;;;;5072431;28;20443;-46
2022/05/01 07:42:22;;;;;;;12.20;11.80;;;23.90;49.40;;;;;;5073973;28;20786;-46
2022/05/01 07:44:50;;;;;;;14.30;13.60;;;24.00;49.40;;;;;;5073761;28;20652;-49
2022/05/01 07:47:16;;;;;;;12.87;12.37;;;24.00;49.30;;;;;;5073321;28;20490;-45
2022/05/01 07:49:45;;;;;;;12.23;11.57;;;24.10;49.20;;;;;;5073541;28;20444;-43
2022/05/01 07:52:12;;;;;;;11.70;11.30;;;24.10;49.20;;;;;;5073718;28;20487;-44
2022/05/01 07:54:39;;;;;;;12.33;11.73;;;24.10;49.10;;;;;;5073676;28;20920;-46
2022/05/01 07:57:07;;;;;;;12.20;11.80;;;24.20;49.10;;;;;;5073560;28;20463;-46
2022/05/01 07:59:34;;;;;;;12.50;12.00;;;24.20;49.00;;;;;;5073705;28;20447;-47
2022/05/01 08:02:00;;;;;;;12.20;11.80;;;24.20;49.00;;;;;;5073627;28;20452;-44
2022/05/01 08:04:29;;;;;;;11.83;11.43;;;24.20;48.90;;;;;;5073432;28;20447;-45
2022/05/01 08:06:59;;;;;;;11.63;11.13;;;24.20;48.90;;;;;;5073232;28;20519;-46
2022/05/01 08:09:26;;;;;;;11.90;11.40;;;24.20;48.90;;;;;;5073170;28;20447;-47
2022/05/01 08:11:52;;;;;;;11.57;11.17;;;24.20;48.90;;;;;;5073132;28;20471;-46
2022/05/01 08:14:20;;;;;;;12.00;11.60;;;24.30;49.00;;;;;;5073320;28;20504;-45
2022/05/01 08:16:47;;;;;;;11.90;11.50;;;24.30;48.80;;;;;;5072960;28;20991;-47
2022/05/01 08:22:00;;;;;;;11.90;11.50;;;24.50;49.10;;;;;;5073303;28;20419;-45
2022/05/01 08:24:27;;;;;;;12.30;11.77;;;24.50;49.20;;;;;;5073079;28;20509;-45
2022/05/01 08:26:54;;;;;;;12.40;12.00;;;24.50;49.10;;;;;;5072798;28;20467;-43
2022/05/01 08:29:21;;;;;;;11.50;11.07;;;24.50;49.10;;;;;;5071303;28;21861;-46
2022/05/01 08:31:48;;;;;;;11.50;11.10;;;24.40;49.20;;;;;;5071836;28;20906;-45
2022/05/01 08:34:16;;;;;;;12.40;12.00;;;24.30;49.50;;;;;;5072565;28;20941;-46
2022/05/01 08:36:45;;;;;;;12.40;11.80;;;24.30;49.50;;;;;;5072229;28;20471;-48
2022/05/01 08:39:13;;;;;;;11.80;11.40;;;24.30;49.60;;;;;;5072868;28;20526;-44
2022/05/01 08:41:40;;;;;;;12.07;11.57;;;24.30;49.20;;;;;;5072839;28;20428;-45
2022/05/01 08:44:09;;;;;;;13.50;12.27;;;24.20;49.30;;;;;;5072622;28;20446;-45
2022/05/01 08:46:59;;;;;;;11.50;11.10;;;24.20;49.40;;;;;;5070619;28;20573;-45
2022/05/01 08:49:26;;;;;;;12.70;12.10;;;24.10;49.40;;;;;;5057937;28;20454;-47
2022/05/01 08:51:54;;;;;;;11.70;11.40;;;24.10;49.60;;;;;;5072169;28;20475;-43
2022/05/01 08:54:24;;;;;;;12.47;12.00;;;24.00;49.50;;;;;;5072237;28;20448;-61
2022/05/01 08:56:50;;;;;;;11.90;11.23;;;24.10;49.40;;;;;;5071888;28;20537;-46
2022/05/01 08:59:19;;;;;;;12.67;12.07;;;24.10;49.50;;;;;;5072426;28;20447;-47
2022/05/01 09:01:46;;;;;;;11.77;11.20;;;24.00;49.90;;;;;;5072007;28;20446;-46
2022/05/01 09:04:14;;;;;;;11.40;11.00;;;24.10;50.00;;;;;;5072092;28;20451;-42
2022/05/01 09:06:43;;;;;;;11.67;11.20;;;24.20;50.10;;;;;;5071868;28;20515;-43
2022/05/01 09:09:11;;;;;;;11.27;10.87;;;24.30;49.30;;;;;;5071621;28;20447;-44
2022/05/01 09:14:27;;;;;;;12.80;12.30;;;24.30;49.40;;;;;;5072025;28;20443;-46
2022/05/01 09:17:13;;;;;;;13.00;12.40;;;24.30;49.00;;;;;;5071723;28;20471;-48
2022/05/01 09:19:40;;;;;;;13.03;12.53;;;24.20;46.80;;;;;;5071948;28;20493;-47
2022/05/01 09:22:07;;;;;;;14.43;13.70;;;24.10;45.90;;;;;;5071756;28;20448;-47
2022/05/01 09:24:34;;;;;;;15.10;14.40;;;23.90;43.40;;;;;;5071756;28;20949;-48
2022/05/01 09:27:02;;;;;;;15.30;14.60;;;23.60;41.80;;;;;;5071876;28;20829;-47
2022/05/01 09:29:34;;;;;;;16.57;15.50;;;23.40;40.90;;;;;;5071619;28;20443;-47
2022/05/01 09:32:03;;;;;;;16.13;15.23;;;23.40;41.50;;;;;;5071576;28;20622;-47
2022/05/01 09:34:32;;;;;;;14.47;13.80;;;23.30;42.00;;;;;;5070627;28;20534;-47
2022/05/01 09:37:00;;;;;;;16.13;15.07;;;23.40;42.10;;;;;;5070952;28;20470;-49
2022/05/01 09:39:28;;;;;;;15.60;14.67;;;23.50;43.90;;;;;;5071331;28;20936;-49
2022/05/01 09:42:12;;;;;;;13.80;13.20;;;23.50;44.50;;;;;;5071395;28;20439;-50
2022/05/01 09:44:40;;;;;;;14.43;13.43;;;23.60;44.60;;;;;;5071320;28;20486;-45
2022/05/01 09:47:07;;;;;;;14.83;14.03;;;23.60;44.80;;;;;;5071021;28;21036;-50
2022/05/01 09:49:47;;;;;;;15.10;13.90;;;23.50;44.00;;;;;;5071632;28;20448;-45
2022/05/01 09:52:13;;;;;;;14.93;14.20;;;23.50;44.10;;;;;;5071797;28;20485;-47
2022/05/01 09:54:40;;;;;;;16.37;15.57;;;23.40;44.20;;;;;;5071046;28;20443;-46
2022/05/01 09:57:22;;;;;;;15.70;15.00;;;23.30;43.50;;;;;;5070865;28;20809;-46
2022/05/01 09:59:50;;;;;;;16.33;15.53;;;23.10;42.50;;;;;;5071598;28;20451;-46
2022/05/01 10:02:28;;;;;;;15.83;14.93;;;23.10;42.20;;;;;;5070821;28;20451;-45
2022/05/01 10:04:57;;;;;;;14.27;13.57;;;23.20;41.70;;;;;;5071518;28;20864;-47
2022/05/01 10:07:26;;;;;;;13.30;12.70;;;23.20;41.80;;;;;;5069175;28;20486;-46
2022/05/01 10:09:54;;;;;;;14.80;14.10;;;23.30;42.00;;;;;;5071743;28;20444;-44
2022/05/01 10:12:24;;;;;;;14.57;13.97;;;23.20;41.50;;;;;;5071483;28;21011;-45
2022/05/01 10:14:53;;;;;;;14.70;13.90;;;23.20;41.40;;;;;;5071461;28;20805;-44
2022/05/01 10:17:20;;;;;;;15.87;14.80;;;23.20;41.50;;;;;;5071081;28;20475;-45
2022/05/01 10:19:49;;;;;;;15.70;15.00;;;23.10;41.20;;;;;;5071344;28;20448;-46
2022/05/01 10:22:18;;;;;;;14.67;13.97;;;23.00;40.90;;;;;;5071316;28;20436;-45
2022/05/01 10:24:45;;;;;;;15.30;14.50;;;22.90;40.90;;;;;;5071315;28;20932;-44
2022/05/01 10:27:23;;;;;;;15.23;14.43;;;22.90;41.10;;;;;;5071008;28;20882;-44
2022/05/01 10:33:29;;;;;;;14.47;13.80;;;22.90;41.00;;;;;;5071601;28;20470;-44
2022/05/01 10:36:32;;;;;;;13.53;13.03;;;22.90;41.30;;;;;;5066348;28;20452;-44
2022/05/01 10:39:09;;;;;;;14.07;13.57;;;23.00;41.70;;;;;;5071013;28;20439;-45
2022/05/01 10:41:41;;;;;;;15.13;14.30;;;23.00;41.80;;;;;;5071220;28;20443;-44
2022/05/01 10:44:08;;;;;;;13.93;13.43;;;22.90;41.50;;;;;;5071228;28;20439;-44
2022/05/01 10:46:36;;;;;;;14.63;14.03;;;22.90;41.40;;;;;;5070753;28;20445;-45
2022/05/01 10:49:06;;;;;;;14.90;14.30;;;22.80;41.20;;;;;;5071070;28;20431;-46
2022/05/01 10:51:49;;;;;;;15.70;15.10;;;22.70;41.30;;;;;;5071031;28;20472;-48
2022/05/01 10:54:38;;;;;;;15.47;14.87;;;22.70;41.20;;;;;;5071315;28;20439;-44
2022/05/01 10:57:16;;;;;;;14.80;13.93;;;22.60;41.00;;;;;;5070783;28;20472;-45
2022/05/01 10:59:48;;;;;;;14.23;13.63;;;22.60;40.80;;;;;;5071011;28;20944;-45
2022/05/01 11:02:25;;;;;;;14.03;13.43;;;22.50;40.70;;;;;;5070921;28;20439;-44
2022/05/01 11:04:53;;;;;;;15.77;14.90;;;22.50;40.80;;;;;;5071179;28;20451;-46
2022/05/01 11:07:21;;;;;;;15.53;14.90;;;22.40;41.00;;;;;;5070574;28;20980;-46
2022/05/01 11:09:49;;;;;;;14.97;14.27;;;22.40;40.70;;;;;;5070979;28;20451;-46
2022/05/01 11:12:19;;;;;;;15.17;14.57;;;22.30;40.50;;;;;;5071361;28;20844;-48
2022/05/01 11:14:57;;;;;;;14.90;14.23;;;22.40;40.80;;;;;;5074385;28;20443;-46
2022/05/01 11:20:34;;;;;;;14.30;13.60;;;22.40;40.80;;;;;;5089460;28;20563;-46
2022/05/01 11:23:33;;;;;;;14.47;13.80;;;22.30;40.40;;;;;;5089049;28;20935;-44
2022/05/01 11:26:17;;;;;;;15.50;14.90;;;22.20;40.30;;;;;;5085068;28;20485;-49
2022/05/01 11:28:53;;;;;;;14.93;14.33;;;22.20;40.20;;;;;;5089211;28;20462;-45
2022/05/01 11:31:46;;;;;;;15.10;14.50;;;22.20;40.20;;;;;;5089648;28;20442;-45
2022/05/01 11:34:34;;;;;;;14.60;14.00;;;22.20;40.40;;;;;;5089343;28;20501;-47
2022/05/01 11:37:04;;;;;;;14.63;14.03;;;22.20;40.60;;;;;;5088675;28;20999;-45
2022/05/01 11:40:16;;;;;;;14.17;13.67;;;22.30;40.70;;;;;;5089150;28;20843;-50
2022/05/01 11:42:43;;;;;;;14.40;13.70;;;22.30;40.90;;;;;;5060727;28;20839;-50
2022/05/01 11:45:11;;;;;;;14.33;13.73;;;22.30;41.20;;;;;;5089159;28;20449;-51
2022/05/01 11:47:38;;;;;;;14.73;14.13;;;22.20;41.20;;;;;;5088793;28;20561;-51
2022/05/01 11:50:06;;;;;;;15.47;14.73;;;22.20;41.00;;;;;;5089027;28;20447;-51
2022/05/01 11:52:37;;;;;;;15.63;14.83;;;22.10;41.00;;;;;;5088860;28;20442;-48
2022/05/01 11:55:08;;;;;;;14.30;13.70;;;22.00;41.00;;;;;;5088982;28;21607;-46
2022/05/01 12:03:07;;;;;;;14.90;14.20;;;22.20;41.60;;;;;;5089015;28;20418;-48
2022/05/01 12:05:43;;;;;;;15.23;14.60;;;22.20;41.80;;;;;;5088973;28;20446;-48
2022/05/01 12:08:11;;;;;;;16.23;15.43;;;22.10;41.50;;;;;;5088727;28;20471;-52
2022/05/01 12:10:41;;;;;;;15.20;14.53;;;22.00;41.30;;;;;;5088747;28;20534;-49
2022/05/01 12:13:18;;;;;;;16.10;15.10;;;21.90;41.10;;;;;;5088703;28;20450;-48
2022/05/01 12:15:45;;;;;;;14.27;13.50;;;22.00;41.10;;;;;;5088589;28;20927;-45
2022/05/01 12:18:12;;;;;;;14.47;13.87;;;22.00;41.10;;;;;;5087934;28;20463;-47
2022/05/01 12:20:39;;;;;;;15.47;14.57;;;22.00;41.10;;;;;;5088368;28;20559;-48
2022/05/01 12:23:16;;;;;;;15.67;14.77;;;22.00;41.10;;;;;;5088202;28;20449;-49
2022/05/01 12:25:44;;;;;;;16.27;15.43;;;22.00;41.10;;;;;;5088240;28;20449;-46
2022/05/01 12:28:12;;;;;;;17.00;16.00;;;21.90;41.00;;;;;;5087818;28;20463;-47
2022/05/01 12:30:39;;;;;;;15.80;15.10;;;21.90;40.80;;;;;;5081171;28;20440;-47
2022/05/01 12:33:06;;;;;;;16.53;15.63;;;21.90;40.90;;;;;;5074515;28;20925;-48
2022/05/01 12:35:56;;;;;;;15.10;14.50;;;21.90;41.40;;;;;;5074611;28;20448;-50
2022/05/01 12:38:27;;;;;;;16.23;15.53;;;21.90;40.70;;;;;;5074360;28;20974;-47
2022/05/01 12:43:55;;;;;;;15.33;14.73;;;21.90;40.30;;;;;;5074619;28;20774;-47
2022/05/01 12:46:27;;;;;;;14.33;13.67;;;22.00;40.50;;;;;;5074353;28;20478;-49
2022/05/01 12:48:56;;;;;;;14.43;13.90;;;22.10;41.00;;;;;;5074264;28;20439;-48
2022/05/01 12:51:23;;;;;;;15.07;14.47;;;22.10;41.20;;;;;;5074080;28;20443;-48
2022/05/01 12:54:09;;;;;;;14.80;14.20;;;22.10;41.30;;;;;;5074067;28;20524;-45
2022/05/01 12:56:35;;;;;;;14.90;14.30;;;22.00;41.10;;;;;;5073696;28;20496;-45
2022/05/01 12:59:27;;;;;;;13.63;13.13;;;22.00;41.00;;;;;;5074065;28;20486;-46
2022/05/01 13:01:55;;;;;;;14.90;14.30;;;22.10;41.20;;;;;;5074027;28;20510;-47
2022/05/01 13:04:24;;;;;;;13.87;13.37;;;22.20;41.30;;;;;;5073828;28;20494;-49
2022/05/01 13:06:51;;;;;;;14.40;13.80;;;22.20;41.40;;;;;;5073913;28;20537;-48
2022/05/01 13:09:19;;;;;;;14.57;14.00;;;22.20;41.50;;;;;;5073821;28;20675;-48
2022/05/01 13:12:00;;;;;;;14.70;14.10;;;22.20;41.30;;;;;;5073754;28;20447;-46